sensor_id;sensor_type;location;lat;lon;timestamp;P1;durP1;ratioP1;P2;durP2;ratioP2
50769;SDS011;36740;48.698;11.472;2022-09-01T00:02:32;15.85;;;8.93;;
50769;SDS011;36740;48.698;11.472;2022-09-01T00:05:18;14.38;;;8.75;;
50769;SDS011;36740;48.698;11.472;2022-09-01T00:08:04;11.25;;;7.63;;
50769;SDS011;36740;48.698;11.472;2022-09-01T00:10:49;12.35;;;7.32;;
50769;SDS011;36740;48.698;11.472;2022-09-01T00:13:35;14.32;;;7.90;;
50769;SDS011;36740;48.698;11.472;2022-09-01T00:16:21;13.90;;;7.13;;
50769;SDS011;36740;48.698;11.472;2022-09-01T00:19:07;13.48;;;7.88;;
50769;SDS011;36740;48.698;11.472;2022-09-01T00:21:52;9.95;;;6.43;;
50769;SDS011;36740;48.698;11.472;2022-09-01T00:24:38;9.73;;;7.20;;
50769;SDS011;36740;48.698;11.472;2022-09-01T00:27:23;11.80;;;7.13;;
50769;SDS011;36740;48.698;11.472;2022-09-01T00:30:09;13.93;;;7.72;;
50769;SDS011;36740;48.698;11.472;2022-09-01T00:32:55;10.30;;;6.57;;
50769;SDS011;36740;48.698;11.472;2022-09-01T00:35:40;10.00;;;6.15;;
50769;SDS011;36740;48.698;11.472;2022-09-01T00:38:26;13.50;;;7.97;;
50769;SDS011;36740;48.698;11.472;2022-09-01T00:41:12;10.38;;;6.72;;
50769;SDS011;36740;48.698;11.472;2022-09-01T00:44:01;11.35;;;7.20;;
50769;SDS011;36740;48.698;11.472;2022-09-01T00:46:50;14.55;;;7.78;;
50769;SDS011;36740;48.698;11.472;2022-09-01T00:49:46;11.75;;;7.53;;
50769;SDS011;36740;48.698;11.472;2022-09-01T00:52:43;14.73;;;8.25;;
50769;SDS011;36740;48.698;11.472;2022-09-01T00:55:30;11.60;;;6.68;;
50769;SDS011;36740;48.698;11.472;2022-09-01T00:58:23;11.52;;;7.65;;
50769;SDS011;36740;48.698;11.472;2022-09-01T01:01:10;14.05;;;7.80;;
50769;SDS011;36740;48.698;11.472;2022-09-01T01:03:57;11.70;;;8.07;;
50769;SDS011;36740;48.698;11.472;2022-09-01T01:06:48;12.60;;;7.82;;
50769;SDS011;36740;48.698;11.472;2022-09-01T01:09:39;12.82;;;8.75;;
50769;SDS011;36740;48.698;11.472;2022-09-01T01:12:26;10.95;;;7.47;;
50769;SDS011;36740;48.698;11.472;2022-09-01T01:15:12;11.15;;;7.75;;
50769;SDS011;36740;48.698;11.472;2022-09-01T01:17:58;14.02;;;8.95;;
50769;SDS011;36740;48.698;11.472;2022-09-01T01:20:44;12.90;;;7.72;;
50769;SDS011;36740;48.698;11.472;2022-09-01T01:23:52;13.63;;;8.70;;
50769;SDS011;36740;48.698;11.472;2022-09-01T01:26:41;10.90;;;7.35;;
50769;SDS011;36740;48.698;11.472;2022-09-01T01:29:30;10.02;;;6.95;;
50769;SDS011;36740;48.698;11.472;2022-09-01T01:32:16;11.27;;;8.10;;
50769;SDS011;36740;48.698;11.472;2022-09-01T01:35:03;10.05;;;6.75;;
50769;SDS011;36740;48.698;11.472;2022-09-01T01:37:50;15.18;;;9.82;;
50769;SDS011;36740;48.698;11.472;2022-09-01T01:40:36;13.82;;;8.20;;
50769;SDS011;36740;48.698;11.472;2022-09-01T01:43:22;16.20;;;7.78;;
50769;SDS011;36740;48.698;11.472;2022-09-01T01:46:09;13.38;;;9.38;;
50769;SDS011;36740;48.698;11.472;2022-09-01T01:48:55;14.98;;;8.65;;
50769;SDS011;36740;48.698;11.472;2022-09-01T01:51:41;13.55;;;8.60;;
50769;SDS011;36740;48.698;11.472;2022-09-01T01:54:28;14.68;;;8.35;;
50769;SDS011;36740;48.698;11.472;2022-09-01T01:57:15;14.30;;;8.70;;
50769;SDS011;36740;48.698;11.472;2022-09-01T02:00:02;12.23;;;7.30;;
50769;SDS011;36740;48.698;11.472;2022-09-01T02:02:51;19.38;;;9.43;;
50769;SDS011;36740;48.698;11.472;2022-09-01T02:05:37;10.80;;;8.52;;
50769;SDS011;36740;48.698;11.472;2022-09-01T02:08:23;17.48;;;11.05;;
50769;SDS011;36740;48.698;11.472;2022-09-01T02:11:11;14.93;;;8.98;;
50769;SDS011;36740;48.698;11.472;2022-09-01T02:13:58;14.23;;;10.10;;
50769;SDS011;36740;48.698;11.472;2022-09-01T02:16:45;17.30;;;8.98;;
50769;SDS011;36740;48.698;11.472;2022-09-01T02:19:30;13.23;;;9.15;;
50769;SDS011;36740;48.698;11.472;2022-09-01T02:22:16;13.23;;;8.80;;
50769;SDS011;36740;48.698;11.472;2022-09-01T02:25:06;15.13;;;10.02;;
50769;SDS011;36740;48.698;11.472;2022-09-01T02:27:51;14.32;;;8.77;;
50769;SDS011;36740;48.698;11.472;2022-09-01T02:30:40;16.55;;;11.30;;
50769;SDS011;36740;48.698;11.472;2022-09-01T02:33:26;16.13;;;9.00;;
50769;SDS011;36740;48.698;11.472;2022-09-01T02:36:14;17.25;;;12.63;;
50769;SDS011;36740;48.698;11.472;2022-09-01T02:38:59;17.98;;;9.85;;
50769;SDS011;36740;48.698;11.472;2022-09-01T02:41:45;16.50;;;8.82;;
50769;SDS011;36740;48.698;11.472;2022-09-01T02:44:31;15.40;;;9.68;;
50769;SDS011;36740;48.698;11.472;2022-09-01T02:47:17;14.40;;;10.48;;
50769;SDS011;36740;48.698;11.472;2022-09-01T02:50:02;15.13;;;10.50;;
50769;SDS011;36740;48.698;11.472;2022-09-01T02:52:48;16.13;;;10.20;;
50769;SDS011;36740;48.698;11.472;2022-09-01T02:55:37;13.35;;;8.43;;
50769;SDS011;36740;48.698;11.472;2022-09-01T02:58:23;14.23;;;10.25;;
50769;SDS011;36740;48.698;11.472;2022-09-01T03:01:10;14.52;;;10.02;;
50769;SDS011;36740;48.698;11.472;2022-09-01T03:04:01;14.50;;;8.02;;
50769;SDS011;36740;48.698;11.472;2022-09-01T03:06:47;12.57;;;6.93;;
50769;SDS011;36740;48.698;11.472;2022-09-01T03:09:34;12.98;;;8.35;;
50769;SDS011;36740;48.698;11.472;2022-09-01T03:12:19;14.30;;;7.43;;
50769;SDS011;36740;48.698;11.472;2022-09-01T03:15:05;15.30;;;9.30;;
50769;SDS011;36740;48.698;11.472;2022-09-01T03:17:51;15.73;;;10.98;;
50769;SDS011;36740;48.698;11.472;2022-09-01T03:20:38;16.52;;;10.13;;
50769;SDS011;36740;48.698;11.472;2022-09-01T03:23:27;14.07;;;10.00;;
50769;SDS011;36740;48.698;11.472;2022-09-01T03:26:13;13.25;;;9.10;;
50769;SDS011;36740;48.698;11.472;2022-09-01T03:28:59;13.40;;;7.88;;
50769;SDS011;36740;48.698;11.472;2022-09-01T03:31:46;12.60;;;7.35;;
50769;SDS011;36740;48.698;11.472;2022-09-01T03:34:32;13.82;;;9.23;;
50769;SDS011;36740;48.698;11.472;2022-09-01T03:37:18;9.40;;;5.68;;
50769;SDS011;36740;48.698;11.472;2022-09-01T03:40:05;11.75;;;7.63;;
50769;SDS011;36740;48.698;11.472;2022-09-01T03:42:53;11.93;;;6.60;;
50769;SDS011;36740;48.698;11.472;2022-09-01T03:45:39;16.20;;;9.15;;
50769;SDS011;36740;48.698;11.472;2022-09-01T03:48:26;14.40;;;8.98;;
50769;SDS011;36740;48.698;11.472;2022-09-01T03:51:13;13.27;;;8.15;;
50769;SDS011;36740;48.698;11.472;2022-09-01T03:53:59;16.15;;;8.40;;
50769;SDS011;36740;48.698;11.472;2022-09-01T03:56:45;11.73;;;8.32;;
50769;SDS011;36740;48.698;11.472;2022-09-01T03:59:30;14.32;;;9.25;;
50769;SDS011;36740;48.698;11.472;2022-09-01T04:02:16;14.35;;;8.63;;
50769;SDS011;36740;48.698;11.472;2022-09-01T04:05:02;13.27;;;7.95;;
50769;SDS011;36740;48.698;11.472;2022-09-01T04:07:48;12.80;;;9.45;;
50769;SDS011;36740;48.698;11.472;2022-09-01T04:10:36;12.25;;;6.53;;
50769;SDS011;36740;48.698;11.472;2022-09-01T04:13:23;13.55;;;8.70;;
50769;SDS011;36740;48.698;11.472;2022-09-01T04:16:21;11.50;;;7.78;;
50769;SDS011;36740;48.698;11.472;2022-09-01T04:19:26;13.43;;;8.98;;
50769;SDS011;36740;48.698;11.472;2022-09-01T04:22:12;10.82;;;7.30;;
50769;SDS011;36740;48.698;11.472;2022-09-01T04:24:59;10.88;;;7.82;;
50769;SDS011;36740;48.698;11.472;2022-09-01T04:27:45;10.10;;;7.05;;
50769;SDS011;36740;48.698;11.472;2022-09-01T04:30:31;14.13;;;9.43;;
50769;SDS011;36740;48.698;11.472;2022-09-01T04:33:18;12.27;;;7.70;;
50769;SDS011;36740;48.698;11.472;2022-09-01T04:36:13;12.85;;;9.15;;
50769;SDS011;36740;48.698;11.472;2022-09-01T04:38:59;12.70;;;6.93;;
50769;SDS011;36740;48.698;11.472;2022-09-01T04:41:45;15.23;;;8.23;;
50769;SDS011;36740;48.698;11.472;2022-09-01T04:44:31;14.43;;;8.10;;
50769;SDS011;36740;48.698;11.472;2022-09-01T04:47:16;11.85;;;7.20;;
50769;SDS011;36740;48.698;11.472;2022-09-01T04:50:05;11.63;;;8.02;;
50769;SDS011;36740;48.698;11.472;2022-09-01T04:52:58;13.57;;;9.00;;
50769;SDS011;36740;48.698;11.472;2022-09-01T04:55:46;9.25;;;6.85;;
50769;SDS011;36740;48.698;11.472;2022-09-01T04:58:32;13.60;;;7.88;;
50769;SDS011;36740;48.698;11.472;2022-09-01T05:01:19;10.10;;;6.40;;
50769;SDS011;36740;48.698;11.472;2022-09-01T05:04:05;11.70;;;8.27;;
50769;SDS011;36740;48.698;11.472;2022-09-01T05:06:51;10.27;;;6.95;;
50769;SDS011;36740;48.698;11.472;2022-09-01T05:09:42;14.50;;;8.95;;
50769;SDS011;36740;48.698;11.472;2022-09-01T05:12:27;17.15;;;9.02;;
50769;SDS011;36740;48.698;11.472;2022-09-01T05:15:14;12.13;;;7.90;;
50769;SDS011;36740;48.698;11.472;2022-09-01T05:18:00;13.23;;;9.13;;
50769;SDS011;36740;48.698;11.472;2022-09-01T05:20:46;14.45;;;8.30;;
50769;SDS011;36740;48.698;11.472;2022-09-01T05:23:32;12.10;;;7.70;;
50769;SDS011;36740;48.698;11.472;2022-09-01T05:26:18;11.70;;;8.50;;
50769;SDS011;36740;48.698;11.472;2022-09-01T05:29:04;14.15;;;9.00;;
50769;SDS011;36740;48.698;11.472;2022-09-01T05:31:55;19.58;;;10.32;;
50769;SDS011;36740;48.698;11.472;2022-09-01T05:34:40;16.13;;;8.90;;
50769;SDS011;36740;48.698;11.472;2022-09-01T05:37:28;15.50;;;10.85;;
50769;SDS011;36740;48.698;11.472;2022-09-01T05:40:14;15.35;;;8.75;;
50769;SDS011;36740;48.698;11.472;2022-09-01T05:43:00;13.73;;;9.73;;
50769;SDS011;36740;48.698;11.472;2022-09-01T05:45:46;12.90;;;9.60;;
50769;SDS011;36740;48.698;11.472;2022-09-01T05:48:33;15.02;;;10.55;;
50769;SDS011;36740;48.698;11.472;2022-09-01T05:51:24;16.00;;;10.15;;
50769;SDS011;36740;48.698;11.472;2022-09-01T05:54:11;16.23;;;10.95;;
50769;SDS011;36740;48.698;11.472;2022-09-01T05:56:56;16.95;;;9.95;;
50769;SDS011;36740;48.698;11.472;2022-09-01T05:59:43;20.40;;;12.18;;
50769;SDS011;36740;48.698;11.472;2022-09-01T06:02:31;15.68;;;10.65;;
50769;SDS011;36740;48.698;11.472;2022-09-01T06:05:18;20.48;;;12.85;;
50769;SDS011;36740;48.698;11.472;2022-09-01T06:08:04;19.17;;;11.13;;
50769;SDS011;36740;48.698;11.472;2022-09-01T06:10:52;19.48;;;12.18;;
50769;SDS011;36740;48.698;11.472;2022-09-01T06:13:38;20.65;;;12.05;;
50769;SDS011;36740;48.698;11.472;2022-09-01T06:16:26;20.02;;;13.20;;
50769;SDS011;36740;48.698;11.472;2022-09-01T06:19:13;16.83;;;12.20;;
50769;SDS011;36740;48.698;11.472;2022-09-01T06:21:58;19.08;;;13.60;;
50769;SDS011;36740;48.698;11.472;2022-09-01T06:24:44;20.30;;;13.85;;
50769;SDS011;36740;48.698;11.472;2022-09-01T06:27:31;15.88;;;11.05;;
50769;SDS011;36740;48.698;11.472;2022-09-01T06:30:16;21.92;;;14.63;;
50769;SDS011;36740;48.698;11.472;2022-09-01T06:33:04;19.27;;;13.23;;
50769;SDS011;36740;48.698;11.472;2022-09-01T06:35:53;18.08;;;11.50;;
50769;SDS011;36740;48.698;11.472;2022-09-01T06:38:40;15.90;;;8.98;;
50769;SDS011;36740;48.698;11.472;2022-09-01T06:41:27;24.75;;;12.00;;
50769;SDS011;36740;48.698;11.472;2022-09-01T06:44:13;21.98;;;12.65;;
50769;SDS011;36740;48.698;11.472;2022-09-01T06:46:58;16.92;;;10.38;;
50769;SDS011;36740;48.698;11.472;2022-09-01T06:49:44;18.80;;;11.95;;
50769;SDS011;36740;48.698;11.472;2022-09-01T06:52:30;19.35;;;11.38;;
50769;SDS011;36740;48.698;11.472;2022-09-01T06:55:15;16.08;;;10.65;;
50769;SDS011;36740;48.698;11.472;2022-09-01T06:58:01;18.60;;;10.80;;
50769;SDS011;36740;48.698;11.472;2022-09-01T07:00:50;20.63;;;12.35;;
50769;SDS011;36740;48.698;11.472;2022-09-01T07:03:36;19.75;;;13.38;;
50769;SDS011;36740;48.698;11.472;2022-09-01T07:06:24;20.20;;;14.18;;
50769;SDS011;36740;48.698;11.472;2022-09-01T07:09:11;15.20;;;10.90;;
50769;SDS011;36740;48.698;11.472;2022-09-01T07:11:57;13.13;;;10.10;;
50769;SDS011;36740;48.698;11.472;2022-09-01T07:14:42;21.25;;;13.02;;
50769;SDS011;36740;48.698;11.472;2022-09-01T07:17:30;17.38;;;10.65;;
50769;SDS011;36740;48.698;11.472;2022-09-01T07:20:16;19.42;;;11.95;;
50769;SDS011;36740;48.698;11.472;2022-09-01T07:23:03;17.73;;;13.38;;
50769;SDS011;36740;48.698;11.472;2022-09-01T07:25:49;21.35;;;13.90;;
50769;SDS011;36740;48.698;11.472;2022-09-01T07:28:39;17.65;;;9.40;;
50769;SDS011;36740;48.698;11.472;2022-09-01T07:31:26;21.48;;;11.93;;
50769;SDS011;36740;48.698;11.472;2022-09-01T07:34:12;17.95;;;11.68;;
50769;SDS011;36740;48.698;11.472;2022-09-01T07:36:58;12.35;;;9.13;;
50769;SDS011;36740;48.698;11.472;2022-09-01T07:39:44;19.33;;;10.10;;
50769;SDS011;36740;48.698;11.472;2022-09-01T07:42:30;15.85;;;10.05;;
50769;SDS011;36740;48.698;11.472;2022-09-01T07:45:16;16.25;;;10.07;;
50769;SDS011;36740;48.698;11.472;2022-09-01T07:48:04;15.52;;;10.07;;
50769;SDS011;36740;48.698;11.472;2022-09-01T07:50:51;14.70;;;9.57;;
50769;SDS011;36740;48.698;11.472;2022-09-01T07:53:37;13.75;;;8.52;;
50769;SDS011;36740;48.698;11.472;2022-09-01T07:56:23;11.07;;;7.40;;
50769;SDS011;36740;48.698;11.472;2022-09-01T07:59:09;15.95;;;7.90;;
50769;SDS011;36740;48.698;11.472;2022-09-01T08:01:54;10.05;;;6.28;;
50769;SDS011;36740;48.698;11.472;2022-09-01T08:04:41;9.27;;;6.55;;
50769;SDS011;36740;48.698;11.472;2022-09-01T08:07:27;8.48;;;6.68;;
50769;SDS011;36740;48.698;11.472;2022-09-01T08:10:12;8.65;;;6.00;;
50769;SDS011;36740;48.698;11.472;2022-09-01T08:12:58;9.73;;;7.18;;
50769;SDS011;36740;48.698;11.472;2022-09-01T08:15:43;8.27;;;5.22;;
50769;SDS011;36740;48.698;11.472;2022-09-01T08:18:29;10.77;;;4.60;;
50769;SDS011;36740;48.698;11.472;2022-09-01T08:21:15;7.05;;;4.43;;
50769;SDS011;36740;48.698;11.472;2022-09-01T08:24:01;8.70;;;4.72;;
50769;SDS011;36740;48.698;11.472;2022-09-01T08:26:47;7.57;;;4.90;;
50769;SDS011;36740;48.698;11.472;2022-09-01T08:29:33;7.72;;;4.32;;
50769;SDS011;36740;48.698;11.472;2022-09-01T08:32:18;7.30;;;3.97;;
50769;SDS011;36740;48.698;11.472;2022-09-01T08:35:05;16.20;;;5.82;;
50769;SDS011;36740;48.698;11.472;2022-09-01T08:37:51;8.48;;;5.60;;
50769;SDS011;36740;48.698;11.472;2022-09-01T08:40:37;7.20;;;5.03;;
50769;SDS011;36740;48.698;11.472;2022-09-01T08:46:12;7.22;;;4.63;;
50769;SDS011;36740;48.698;11.472;2022-09-01T08:49:20;9.25;;;4.15;;
50769;SDS011;36740;48.698;11.472;2022-09-01T08:52:16;6.75;;;4.43;;
50769;SDS011;36740;48.698;11.472;2022-09-01T08:57:58;6.15;;;4.22;;
50769;SDS011;36740;48.698;11.472;2022-09-01T09:00:45;7.65;;;3.97;;
50769;SDS011;36740;48.698;11.472;2022-09-01T09:06:23;11.57;;;5.10;;
50769;SDS011;36740;48.698;11.472;2022-09-01T09:09:10;14.02;;;7.00;;
50769;SDS011;36740;48.698;11.472;2022-09-01T09:14:56;7.93;;;5.00;;
50769;SDS011;36740;48.698;11.472;2022-09-01T09:17:47;7.20;;;4.53;;
50769;SDS011;36740;48.698;11.472;2022-09-01T09:20:35;7.05;;;5.03;;
50769;SDS011;36740;48.698;11.472;2022-09-01T09:23:29;22.30;;;13.93;;
50769;SDS011;36740;48.698;11.472;2022-09-01T09:26:16;5.85;;;5.07;;
50769;SDS011;36740;48.698;11.472;2022-09-01T09:29:05;7.93;;;4.75;;
50769;SDS011;36740;48.698;11.472;2022-09-01T09:32:01;4.93;;;3.15;;
50769;SDS011;36740;48.698;11.472;2022-09-01T09:34:47;10.10;;;7.57;;
50769;SDS011;36740;48.698;11.472;2022-09-01T09:37:33;6.70;;;5.25;;
50769;SDS011;36740;48.698;11.472;2022-09-01T09:40:22;9.40;;;5.80;;
50769;SDS011;36740;48.698;11.472;2022-09-01T09:43:08;5.55;;;3.78;;
50769;SDS011;36740;48.698;11.472;2022-09-01T09:49:14;8.02;;;5.22;;
50769;SDS011;36740;48.698;11.472;2022-09-01T09:55:06;6.50;;;4.05;;
50769;SDS011;36740;48.698;11.472;2022-09-01T09:58:08;6.57;;;4.60;;
50769;SDS011;36740;48.698;11.472;2022-09-01T10:00:58;6.55;;;3.80;;
50769;SDS011;36740;48.698;11.472;2022-09-01T10:03:46;6.03;;;4.85;;
50769;SDS011;36740;48.698;11.472;2022-09-01T10:12:16;7.95;;;4.88;;
50769;SDS011;36740;48.698;11.472;2022-09-01T10:15:04;6.65;;;4.68;;
50769;SDS011;36740;48.698;11.472;2022-09-01T10:17:52;4.50;;;3.35;;
50769;SDS011;36740;48.698;11.472;2022-09-01T10:20:37;6.10;;;4.55;;
50769;SDS011;36740;48.698;11.472;2022-09-01T10:23:25;8.77;;;5.03;;
50769;SDS011;36740;48.698;11.472;2022-09-01T10:26:16;8.00;;;4.68;;
50769;SDS011;36740;48.698;11.472;2022-09-01T10:29:08;4.05;;;2.90;;
50769;SDS011;36740;48.698;11.472;2022-09-01T10:31:56;8.77;;;4.15;;
50769;SDS011;36740;48.698;11.472;2022-09-01T10:34:42;6.90;;;4.25;;
50769;SDS011;36740;48.698;11.472;2022-09-01T10:37:28;8.93;;;4.45;;
50769;SDS011;36740;48.698;11.472;2022-09-01T10:40:57;10.15;;;4.63;;
50769;SDS011;36740;48.698;11.472;2022-09-01T10:49:12;8.38;;;3.25;;
50769;SDS011;36740;48.698;11.472;2022-09-01T10:52:02;8.15;;;3.90;;
50769;SDS011;36740;48.698;11.472;2022-09-01T10:54:52;6.20;;;4.30;;
50769;SDS011;36740;48.698;11.472;2022-09-01T11:06:04;6.57;;;3.22;;
50769;SDS011;36740;48.698;11.472;2022-09-01T11:08:56;7.72;;;3.75;;
50769;SDS011;36740;48.698;11.472;2022-09-01T11:11:47;5.25;;;3.22;;
50769;SDS011;36740;48.698;11.472;2022-09-01T11:14:37;5.22;;;3.08;;
50769;SDS011;36740;48.698;11.472;2022-09-01T11:17:31;7.35;;;3.72;;
50769;SDS011;36740;48.698;11.472;2022-09-01T11:20:22;6.22;;;3.70;;
50769;SDS011;36740;48.698;11.472;2022-09-01T11:25:57;5.32;;;3.60;;
50769;SDS011;36740;48.698;11.472;2022-09-01T11:28:43;8.55;;;3.58;;
50769;SDS011;36740;48.698;11.472;2022-09-01T11:31:39;4.75;;;3.67;;
50769;SDS011;36740;48.698;11.472;2022-09-01T11:34:26;6.68;;;4.05;;
50769;SDS011;36740;48.698;11.472;2022-09-01T11:37:17;7.18;;;4.07;;
50769;SDS011;36740;48.698;11.472;2022-09-01T11:40:04;4.65;;;3.45;;
50769;SDS011;36740;48.698;11.472;2022-09-01T11:42:53;6.78;;;3.22;;
50769;SDS011;36740;48.698;11.472;2022-09-01T11:45:49;7.63;;;4.28;;
50769;SDS011;36740;48.698;11.472;2022-09-01T11:48:47;5.15;;;3.60;;
50769;SDS011;36740;48.698;11.472;2022-09-01T11:51:38;10.43;;;3.92;;
50769;SDS011;36740;48.698;11.472;2022-09-01T11:54:27;26.30;;;3.88;;
50769;SDS011;36740;48.698;11.472;2022-09-01T11:57:18;5.32;;;3.55;;
50769;SDS011;36740;48.698;11.472;2022-09-01T12:00:15;5.70;;;3.60;;
50769;SDS011;36740;48.698;11.472;2022-09-01T12:03:18;5.53;;;3.85;;
50769;SDS011;36740;48.698;11.472;2022-09-01T12:06:05;7.13;;;4.30;;
50769;SDS011;36740;48.698;11.472;2022-09-01T12:08:53;5.25;;;3.55;;
50769;SDS011;36740;48.698;11.472;2022-09-01T12:11:39;5.53;;;3.83;;
50769;SDS011;36740;48.698;11.472;2022-09-01T12:14:26;3.90;;;2.97;;
50769;SDS011;36740;48.698;11.472;2022-09-01T12:17:11;4.03;;;2.92;;
50769;SDS011;36740;48.698;11.472;2022-09-01T12:20:24;5.18;;;3.13;;
50769;SDS011;36740;48.698;11.472;2022-09-01T12:23:28;5.20;;;3.10;;
50769;SDS011;36740;48.698;11.472;2022-09-01T12:26:18;5.38;;;3.78;;
50769;SDS011;36740;48.698;11.472;2022-09-01T12:31:50;5.32;;;3.28;;
50769;SDS011;36740;48.698;11.472;2022-09-01T12:34:46;8.70;;;4.10;;
50769;SDS011;36740;48.698;11.472;2022-09-01T12:37:33;4.03;;;2.88;;
50769;SDS011;36740;48.698;11.472;2022-09-01T12:40:32;3.22;;;2.83;;
50769;SDS011;36740;48.698;11.472;2022-09-01T12:46:39;6.13;;;3.20;;
50769;SDS011;36740;48.698;11.472;2022-09-01T12:49:33;4.28;;;2.80;;
50769;SDS011;36740;48.698;11.472;2022-09-01T12:52:23;4.95;;;2.90;;
50769;SDS011;36740;48.698;11.472;2022-09-01T12:55:13;4.47;;;2.90;;
50769;SDS011;36740;48.698;11.472;2022-09-01T12:58:00;4.82;;;2.90;;
50769;SDS011;36740;48.698;11.472;2022-09-01T13:00:53;6.00;;;3.17;;
50769;SDS011;36740;48.698;11.472;2022-09-01T13:03:39;3.83;;;2.38;;
50769;SDS011;36740;48.698;11.472;2022-09-01T13:06:25;6.47;;;2.88;;
50769;SDS011;36740;48.698;11.472;2022-09-01T13:09:11;7.72;;;3.03;;
50769;SDS011;36740;48.698;11.472;2022-09-01T13:12:16;3.33;;;2.40;;
50769;SDS011;36740;48.698;11.472;2022-09-01T13:15:03;5.10;;;2.70;;
50769;SDS011;36740;48.698;11.472;2022-09-01T13:17:48;3.88;;;2.17;;
50769;SDS011;36740;48.698;11.472;2022-09-01T13:20:34;4.60;;;2.55;;
50769;SDS011;36740;48.698;11.472;2022-09-01T13:23:20;3.17;;;2.50;;
50769;SDS011;36740;48.698;11.472;2022-09-01T13:26:06;3.97;;;3.08;;
50769;SDS011;36740;48.698;11.472;2022-09-01T13:28:51;4.15;;;2.72;;
50769;SDS011;36740;48.698;11.472;2022-09-01T13:31:38;4.03;;;2.60;;
50769;SDS011;36740;48.698;11.472;2022-09-01T13:34:24;4.07;;;2.85;;
50769;SDS011;36740;48.698;11.472;2022-09-01T13:37:09;3.20;;;2.22;;
50769;SDS011;36740;48.698;11.472;2022-09-01T13:39:55;4.78;;;2.30;;
50769;SDS011;36740;48.698;11.472;2022-09-01T13:42:41;4.45;;;2.55;;
50769;SDS011;36740;48.698;11.472;2022-09-01T13:45:27;5.78;;;2.97;;
50769;SDS011;36740;48.698;11.472;2022-09-01T13:48:13;7.78;;;3.47;;
50769;SDS011;36740;48.698;11.472;2022-09-01T13:50:58;3.03;;;2.72;;
50769;SDS011;36740;48.698;11.472;2022-09-01T13:53:44;5.53;;;3.03;;
50769;SDS011;36740;48.698;11.472;2022-09-01T13:56:30;6.70;;;3.63;;
50769;SDS011;36740;48.698;11.472;2022-09-01T13:59:16;3.90;;;2.75;;
50769;SDS011;36740;48.698;11.472;2022-09-01T14:02:02;10.23;;;2.28;;
50769;SDS011;36740;48.698;11.472;2022-09-01T14:04:48;2.80;;;2.35;;
50769;SDS011;36740;48.698;11.472;2022-09-01T14:07:33;3.90;;;2.55;;
50769;SDS011;36740;48.698;11.472;2022-09-01T14:10:19;3.13;;;2.28;;
50769;SDS011;36740;48.698;11.472;2022-09-01T14:13:05;5.30;;;2.80;;
50769;SDS011;36740;48.698;11.472;2022-09-01T14:15:51;5.78;;;2.03;;
50769;SDS011;36740;48.698;11.472;2022-09-01T14:18:38;4.00;;;3.20;;
50769;SDS011;36740;48.698;11.472;2022-09-01T14:21:23;4.18;;;2.03;;
50769;SDS011;36740;48.698;11.472;2022-09-01T14:24:10;2.55;;;1.92;;
50769;SDS011;36740;48.698;11.472;2022-09-01T14:26:55;5.45;;;2.53;;
50769;SDS011;36740;48.698;11.472;2022-09-01T14:29:41;4.50;;;2.40;;
50769;SDS011;36740;48.698;11.472;2022-09-01T14:32:26;3.67;;;2.03;;
50769;SDS011;36740;48.698;11.472;2022-09-01T14:35:14;3.45;;;2.38;;
50769;SDS011;36740;48.698;11.472;2022-09-01T14:38:00;10.27;;;2.60;;
50769;SDS011;36740;48.698;11.472;2022-09-01T14:40:47;5.90;;;2.20;;
50769;SDS011;36740;48.698;11.472;2022-09-01T14:43:32;3.22;;;2.25;;
50769;SDS011;36740;48.698;11.472;2022-09-01T14:46:18;2.95;;;2.60;;
50769;SDS011;36740;48.698;11.472;2022-09-01T14:49:05;4.40;;;2.30;;
50769;SDS011;36740;48.698;11.472;2022-09-01T14:51:52;4.07;;;2.15;;
50769;SDS011;36740;48.698;11.472;2022-09-01T14:54:38;3.75;;;2.38;;
50769;SDS011;36740;48.698;11.472;2022-09-01T14:57:24;3.40;;;2.38;;
50769;SDS011;36740;48.698;11.472;2022-09-01T15:00:10;2.50;;;1.90;;
50769;SDS011;36740;48.698;11.472;2022-09-01T15:02:59;2.30;;;2.03;;
50769;SDS011;36740;48.698;11.472;2022-09-01T15:05:44;2.50;;;2.03;;
50769;SDS011;36740;48.698;11.472;2022-09-01T15:08:30;3.45;;;2.15;;
50769;SDS011;36740;48.698;11.472;2022-09-01T15:11:16;3.60;;;2.50;;
50769;SDS011;36740;48.698;11.472;2022-09-01T15:14:02;8.45;;;2.80;;
50769;SDS011;36740;48.698;11.472;2022-09-01T15:16:48;6.20;;;2.42;;
50769;SDS011;36740;48.698;11.472;2022-09-01T15:19:33;5.13;;;2.92;;
50769;SDS011;36740;48.698;11.472;2022-09-01T15:22:19;2.53;;;2.30;;
50769;SDS011;36740;48.698;11.472;2022-09-01T15:25:05;2.42;;;1.92;;
50769;SDS011;36740;48.698;11.472;2022-09-01T15:27:51;7.00;;;1.95;;
50769;SDS011;36740;48.698;11.472;2022-09-01T15:30:37;3.90;;;3.13;;
50769;SDS011;36740;48.698;11.472;2022-09-01T15:33:23;2.70;;;2.13;;
50769;SDS011;36740;48.698;11.472;2022-09-01T15:36:13;4.22;;;2.65;;
50769;SDS011;36740;48.698;11.472;2022-09-01T15:38:59;5.28;;;2.13;;
50769;SDS011;36740;48.698;11.472;2022-09-01T15:41:44;4.07;;;2.08;;
50769;SDS011;36740;48.698;11.472;2022-09-01T15:44:30;2.60;;;2.08;;
50769;SDS011;36740;48.698;11.472;2022-09-01T15:47:16;2.22;;;2.03;;
50769;SDS011;36740;48.698;11.472;2022-09-01T15:50:03;2.60;;;2.00;;
50769;SDS011;36740;48.698;11.472;2022-09-01T15:52:53;4.47;;;2.92;;
50769;SDS011;36740;48.698;11.472;2022-09-01T15:55:43;2.28;;;1.65;;
50769;SDS011;36740;48.698;11.472;2022-09-01T16:01:14;2.70;;;2.00;;
50769;SDS011;36740;48.698;11.472;2022-09-01T16:04:01;4.07;;;2.35;;
50769;SDS011;36740;48.698;11.472;2022-09-01T16:06:47;3.03;;;1.85;;
50769;SDS011;36740;48.698;11.472;2022-09-01T16:09:33;4.00;;;2.42;;
50769;SDS011;36740;48.698;11.472;2022-09-01T16:12:21;2.53;;;1.92;;
50769;SDS011;36740;48.698;11.472;2022-09-01T16:15:06;4.40;;;2.28;;
50769;SDS011;36740;48.698;11.472;2022-09-01T16:24:04;2.75;;;2.10;;
50769;SDS011;36740;48.698;11.472;2022-09-01T16:26:51;2.72;;;2.40;;
50769;SDS011;36740;48.698;11.472;2022-09-01T16:29:39;4.80;;;2.60;;
50769;SDS011;36740;48.698;11.472;2022-09-01T16:32:26;2.63;;;1.70;;
50769;SDS011;36740;48.698;11.472;2022-09-01T16:35:13;2.65;;;2.13;;
50769;SDS011;36740;48.698;11.472;2022-09-01T16:38:11;3.35;;;2.10;;
50769;SDS011;36740;48.698;11.472;2022-09-01T16:44:22;3.75;;;2.38;;
50769;SDS011;36740;48.698;11.472;2022-09-01T16:47:01;3.08;;;2.58;;
50769;SDS011;36740;48.698;11.472;2022-09-01T16:49:51;2.80;;;2.05;;
50769;SDS011;36740;48.698;11.472;2022-09-01T16:52:58;5.75;;;2.03;;
50769;SDS011;36740;48.698;11.472;2022-09-01T16:56:00;5.03;;;3.22;;
50769;SDS011;36740;48.698;11.472;2022-09-01T17:04:45;2.92;;;2.08;;
50769;SDS011;36740;48.698;11.472;2022-09-01T17:13:12;4.68;;;2.22;;
50769;SDS011;36740;48.698;11.472;2022-09-01T17:16:14;2.78;;;1.92;;
50769;SDS011;36740;48.698;11.472;2022-09-01T17:19:05;5.63;;;2.28;;
50769;SDS011;36740;48.698;11.472;2022-09-01T17:21:58;2.65;;;1.83;;
50769;SDS011;36740;48.698;11.472;2022-09-01T17:27:37;2.65;;;1.80;;
50769;SDS011;36740;48.698;11.472;2022-09-01T17:30:28;2.65;;;1.75;;
50769;SDS011;36740;48.698;11.472;2022-09-01T17:36:12;5.45;;;1.98;;
50769;SDS011;36740;48.698;11.472;2022-09-01T17:45:24;5.70;;;2.05;;
50769;SDS011;36740;48.698;11.472;2022-09-01T17:48:16;2.95;;;2.35;;
50769;SDS011;36740;48.698;11.472;2022-09-01T17:59:43;4.72;;;1.83;;